Pagrindinis puslapis
METAR-TAF:

METAR-TAF

Oro uostai :

Alderney,

platuma: 49-43N, ilguma: 002-12W, Aukštis: 71 m

Dabartinis oras

Ataskaita buvo paskelbta 17 minutes, ne 12:50 UTC
Vėjas 24 kt iš Šiaurės/Šiaurės Vakarų
Temperatūra 10°C
Drėgmė 66%
Slėgis 1018 hPa
Matomumas 10 km arba daugiau
Išsisklaidę debesys ne aukštis 3000 ft

METAR: EGJA 091250Z 33024KT 9999 SCT030 10/04 Q1018

Laikas: 13:07 (13:07 UTC)

Prognozė

Ataskaita buvo paskelbta 2 valandos ir 7 minutes, ne 11:00 UTC
Prognozė galioja nuo 09 metu 12 UTC su 09 metu 21 UTC
Vėjas 25 kt iš Šiaurės Vakarų su gūsio iki 37 kt
Matomumas 10 km arba daugiau
Mažai debesys ne aukštis 2000 ft
Tapsmas
nuo 09 metu 17 UTC su 09 metu 19 UTC
Vėjas 15 kt iš Šiaurės Vakarų

TAF: EGJA 091100Z 0912/0921 32025G37KT 9999 FEW020 BECMG 0917/0919 31015KT

Orai ataskaitas ir orų prognozės (METAR, TAF).

turimą stotys yra geltonos ir raudonos taškus žemėlapyje.

Perkelti pele per norėdami pamatyti stoties vardą.

Tada spustelėkite, norėdami matyti oro stebėjimo ir prognozės.

Norėdami pakeisti žemėlapį: spustelėkite ant žalios mygtukų su juodo kryžiaus žemyn,; žalią mygtuką su brūkšneliu, jei norite nutolinti; arba žalių rodyklių gretimoms žemėlapius.


METAR-TAF: